Terminal Aerodrome Forecast
Issued by NWS Twin Cities, MN

Home | Current Version | Previous Version | Text Only | Print | Product List | Glossary On
Versions: 1 2 3 4 5 6 7 8 9 10 11 12 13 14 15 16 17 18
000
FTUS43 KMPX 151700
TAFSTC
TAF
KSTC 151727Z 1518/1618 24006KT P6SM SCT150
     FM160000 15007KT P6SM OVC090
     FM160600 11010KT P6SM VCSH SCT030 OVC060
     FM161000 10013KT 4SM -SN OVC030
     FM161400 08015G25KT 2SM -SN OVC015=

USA.gov is the U.S. government's official web portal to all federal, state and local government web resources and services.